sensor_id;sensor_type;location;lat;lon;timestamp;pressure;altitude;pressure_sealevel;temperature;humidity
65131;BME280;51709;54.912;8.316;2023-06-01T00:04:47;102150.84;;;13.26;66.91
65131;BME280;51709;54.912;8.316;2023-06-01T00:10:10;102172.97;;;13.23;66.93
65131;BME280;51709;54.912;8.316;2023-06-01T00:15:30;102147.13;;;13.27;66.77
65131;BME280;51709;54.912;8.316;2023-06-01T00:20:51;102155.72;;;13.23;67.03
65131;BME280;51709;54.912;8.316;2023-06-01T00:26:12;102149.13;;;13.25;66.99
65131;BME280;51709;54.912;8.316;2023-06-01T00:31:34;102146.25;;;13.27;66.94
65131;BME280;51709;54.912;8.316;2023-06-01T00:36:55;102159.75;;;13.28;66.83
65131;BME280;51709;54.912;8.316;2023-06-01T00:42:15;102148.53;;;13.31;66.76
65131;BME280;51709;54.912;8.316;2023-06-01T00:47:40;102114.94;;;13.31;66.89
65131;BME280;51709;54.912;8.316;2023-06-01T00:53:07;102144.66;;;13.24;67.29
65131;BME280;51709;54.912;8.316;2023-06-01T00:58:29;102133.91;;;13.23;67.20
65131;BME280;51709;54.912;8.316;2023-06-01T01:03:50;102130.59;;;13.19;67.35
65131;BME280;51709;54.912;8.316;2023-06-01T01:09:22;102156.59;;;13.14;67.46
65131;BME280;51709;54.912;8.316;2023-06-01T01:20:20;102148.38;;;13.04;67.38
65131;BME280;51709;54.912;8.316;2023-06-01T01:31:34;102130.31;;;13.03;67.61
65131;BME280;51709;54.912;8.316;2023-06-01T01:36:55;102122.41;;;13.10;67.52
65131;BME280;51709;54.912;8.316;2023-06-01T01:42:16;102106.59;;;13.13;67.24
65131;BME280;51709;54.912;8.316;2023-06-01T01:53:02;102113.47;;;12.98;67.51
65131;BME280;51709;54.912;8.316;2023-06-01T01:58:23;102098.38;;;12.94;67.47
65131;BME280;51709;54.912;8.316;2023-06-01T02:03:46;102093.94;;;12.93;67.47
65131;BME280;51709;54.912;8.316;2023-06-01T02:09:07;102113.16;;;12.92;67.54
65131;BME280;51709;54.912;8.316;2023-06-01T02:14:30;102079.84;;;12.88;67.50
65131;BME280;51709;54.912;8.316;2023-06-01T02:19:51;102096.94;;;12.90;67.72
65131;BME280;51709;54.912;8.316;2023-06-01T02:25:11;102104.41;;;12.88;67.52
65131;BME280;51709;54.912;8.316;2023-06-01T02:30:32;102087.03;;;12.89;67.67
65131;BME280;51709;54.912;8.316;2023-06-01T02:35:53;102079.28;;;12.85;67.46
65131;BME280;51709;54.912;8.316;2023-06-01T02:41:13;102088.03;;;12.88;67.69
65131;BME280;51709;54.912;8.316;2023-06-01T02:46:35;102078.88;;;12.89;67.60
65131;BME280;51709;54.912;8.316;2023-06-01T02:51:56;102050.28;;;12.84;67.78
65131;BME280;51709;54.912;8.316;2023-06-01T02:57:18;102072.66;;;12.78;67.78
65131;BME280;51709;54.912;8.316;2023-06-01T03:02:46;102060.06;;;12.77;67.97
65131;BME280;51709;54.912;8.316;2023-06-01T03:08:06;102061.75;;;12.78;67.87
65131;BME280;51709;54.912;8.316;2023-06-01T03:13:27;102047.97;;;12.79;67.78
65131;BME280;51709;54.912;8.316;2023-06-01T03:18:48;102061.59;;;12.79;67.94
65131;BME280;51709;54.912;8.316;2023-06-01T03:24:09;102052.44;;;12.80;68.04
65131;BME280;51709;54.912;8.316;2023-06-01T03:29:32;102033.66;;;12.77;67.84
65131;BME280;51709;54.912;8.316;2023-06-01T03:34:53;102050.28;;;12.74;67.88
65131;BME280;51709;54.912;8.316;2023-06-01T03:40:14;102046.25;;;12.78;67.84
65131;BME280;51709;54.912;8.316;2023-06-01T03:45:35;102051.41;;;12.81;67.85
65131;BME280;51709;54.912;8.316;2023-06-01T03:50:56;102052.59;;;12.79;67.97
65131;BME280;51709;54.912;8.316;2023-06-01T03:56:16;102052.03;;;12.75;67.88
65131;BME280;51709;54.912;8.316;2023-06-01T04:01:37;102042.41;;;12.71;67.70
65131;BME280;51709;54.912;8.316;2023-06-01T04:07:01;102043.94;;;12.74;67.92
65131;BME280;51709;54.912;8.316;2023-06-01T04:12:23;102054.75;;;12.75;67.63
65131;BME280;51709;54.912;8.316;2023-06-01T04:17:44;102038.09;;;12.78;67.52
65131;BME280;51709;54.912;8.316;2023-06-01T04:23:05;102033.66;;;12.77;67.59
65131;BME280;51709;54.912;8.316;2023-06-01T04:28:27;102038.94;;;12.79;67.70
65131;BME280;51709;54.912;8.316;2023-06-01T04:33:48;102031.63;;;12.79;67.69
65131;BME280;51709;54.912;8.316;2023-06-01T04:39:17;102031.34;;;12.82;67.47
65131;BME280;51709;54.912;8.316;2023-06-01T04:44:38;102028.47;;;12.84;67.46
65131;BME280;51709;54.912;8.316;2023-06-01T04:50:00;102025.28;;;12.88;67.62
65131;BME280;51709;54.912;8.316;2023-06-01T04:55:21;102029.31;;;12.94;67.33
65131;BME280;51709;54.912;8.316;2023-06-01T05:00:42;102019.28;;;12.94;67.42
65131;BME280;51709;54.912;8.316;2023-06-01T05:06:02;102012.38;;;13.00;67.31
65131;BME280;51709;54.912;8.316;2023-06-01T05:11:23;102011.34;;;13.01;67.34
65131;BME280;51709;54.912;8.316;2023-06-01T05:16:44;102009.22;;;13.04;67.15
65131;BME280;51709;54.912;8.316;2023-06-01T05:22:05;101992.84;;;13.04;67.27
65131;BME280;51709;54.912;8.316;2023-06-01T05:27:26;102000.44;;;13.01;67.31
65131;BME280;51709;54.912;8.316;2023-06-01T05:32:47;101995.28;;;12.98;67.30
65131;BME280;51709;54.912;8.316;2023-06-01T05:38:10;102007.78;;;13.00;67.24
65131;BME280;51709;54.912;8.316;2023-06-01T05:43:31;102008.38;;;13.04;67.06
65131;BME280;51709;54.912;8.316;2023-06-01T05:48:55;101997.44;;;13.13;66.86
65131;BME280;51709;54.912;8.316;2023-06-01T05:54:16;102007.78;;;13.10;67.02
65131;BME280;51709;54.912;8.316;2023-06-01T05:59:37;102005.78;;;13.12;66.87
65131;BME280;51709;54.912;8.316;2023-06-01T06:04:58;101980.22;;;13.13;66.83
65131;BME280;51709;54.912;8.316;2023-06-01T06:10:19;102010.97;;;13.15;66.91
65131;BME280;51709;54.912;8.316;2023-06-01T06:15:39;101997.72;;;13.20;66.91
65131;BME280;51709;54.912;8.316;2023-06-01T06:21:00;102003.03;;;13.21;66.81
65131;BME280;51709;54.912;8.316;2023-06-01T06:26:21;102001.59;;;13.27;66.96
65131;BME280;51709;54.912;8.316;2023-06-01T06:31:41;102002.31;;;13.29;66.92
65131;BME280;51709;54.912;8.316;2023-06-01T06:37:07;101999.66;;;13.46;66.65
65131;BME280;51709;54.912;8.316;2023-06-01T06:42:27;101991.25;;;13.67;66.48
65131;BME280;51709;54.912;8.316;2023-06-01T06:47:48;101991.19;;;13.77;66.37
65131;BME280;51709;54.912;8.316;2023-06-01T06:53:08;101998.09;;;13.81;66.49
65131;BME280;51709;54.912;8.316;2023-06-01T06:58:29;102008.41;;;13.87;66.34
65131;BME280;51709;54.912;8.316;2023-06-01T07:03:50;102008.91;;;14.00;66.12
65131;BME280;51709;54.912;8.316;2023-06-01T07:09:12;102002.53;;;14.09;65.91
65131;BME280;51709;54.912;8.316;2023-06-01T07:14:32;102007.72;;;14.12;66.02
65131;BME280;51709;54.912;8.316;2023-06-01T07:19:53;102016.00;;;14.20;65.87
65131;BME280;51709;54.912;8.316;2023-06-01T07:25:14;102022.84;;;14.06;65.70
65131;BME280;51709;54.912;8.316;2023-06-01T07:30:36;102024.09;;;13.85;66.10
65131;BME280;51709;54.912;8.316;2023-06-01T07:35:56;102011.91;;;13.79;66.31
65131;BME280;51709;54.912;8.316;2023-06-01T07:41:18;102020.66;;;13.83;66.06
65131;BME280;51709;54.912;8.316;2023-06-01T07:46:39;102011.16;;;13.87;65.86
65131;BME280;51709;54.912;8.316;2023-06-01T07:52:00;102013.56;;;13.90;66.07
65131;BME280;51709;54.912;8.316;2023-06-01T07:57:21;102008.09;;;13.90;65.93
65131;BME280;51709;54.912;8.316;2023-06-01T08:02:43;102014.00;;;13.85;65.71
65131;BME280;51709;54.912;8.316;2023-06-01T08:08:04;102017.59;;;13.86;65.74
65131;BME280;51709;54.912;8.316;2023-06-01T08:13:24;102023.91;;;13.96;65.73
65131;BME280;51709;54.912;8.316;2023-06-01T08:18:46;101991.41;;;13.93;65.60
65131;BME280;51709;54.912;8.316;2023-06-01T08:24:07;102006.09;;;13.92;65.58
65131;BME280;51709;54.912;8.316;2023-06-01T08:29:29;102005.78;;;13.95;65.74
65131;BME280;51709;54.912;8.316;2023-06-01T08:35:02;102007.78;;;13.93;65.63
65131;BME280;51709;54.912;8.316;2023-06-01T08:40:23;102003.19;;;13.93;65.74
65131;BME280;51709;54.912;8.316;2023-06-01T08:45:44;102008.31;;;14.06;65.47
65131;BME280;51709;54.912;8.316;2023-06-01T08:51:07;101998.59;;;14.21;65.19
65131;BME280;51709;54.912;8.316;2023-06-01T08:56:28;102003.03;;;14.22;64.88
65131;BME280;51709;54.912;8.316;2023-06-01T09:01:49;101999.41;;;14.31;65.27
65131;BME280;51709;54.912;8.316;2023-06-01T09:07:11;101986.66;;;14.39;64.80
65131;BME280;51709;54.912;8.316;2023-06-01T09:12:33;102004.66;;;14.42;64.89
65131;BME280;51709;54.912;8.316;2023-06-01T09:18:07;102001.00;;;14.51;64.67
65131;BME280;51709;54.912;8.316;2023-06-01T09:23:30;102002.72;;;14.70;64.32
65131;BME280;51709;54.912;8.316;2023-06-01T09:28:58;101986.75;;;14.83;63.90
65131;BME280;51709;54.912;8.316;2023-06-01T09:34:20;101992.13;;;14.92;63.84
65131;BME280;51709;54.912;8.316;2023-06-01T09:39:41;101991.50;;;14.98;63.96
65131;BME280;51709;54.912;8.316;2023-06-01T09:45:14;101992.50;;;14.97;63.73
65131;BME280;51709;54.912;8.316;2023-06-01T09:50:38;101988.13;;;15.04;63.58
65131;BME280;51709;54.912;8.316;2023-06-01T09:56:00;101969.63;;;14.98;63.68
65131;BME280;51709;54.912;8.316;2023-06-01T10:01:22;101974.69;;;14.93;63.72
65131;BME280;51709;54.912;8.316;2023-06-01T10:06:42;101983.03;;;15.09;63.63
65131;BME280;51709;54.912;8.316;2023-06-01T10:12:04;101986.34;;;14.95;63.67
65131;BME280;51709;54.912;8.316;2023-06-01T10:17:24;101981.22;;;14.75;63.84
65131;BME280;51709;54.912;8.316;2023-06-01T10:22:46;101985.78;;;14.92;63.84
65131;BME280;51709;54.912;8.316;2023-06-01T10:28:07;101995.88;;;15.09;63.32
65131;BME280;51709;54.912;8.316;2023-06-01T10:34:03;102002.16;;;15.27;63.18
65131;BME280;51709;54.912;8.316;2023-06-01T10:39:24;101988.22;;;15.38;62.79
65131;BME280;51709;54.912;8.316;2023-06-01T10:44:47;101996.06;;;15.58;62.54
65131;BME280;51709;54.912;8.316;2023-06-01T10:50:09;101983.25;;;15.67;62.17
65131;BME280;51709;54.912;8.316;2023-06-01T10:55:30;101990.00;;;15.81;62.11
65131;BME280;51709;54.912;8.316;2023-06-01T11:00:53;101976.72;;;16.02;61.82
65131;BME280;51709;54.912;8.316;2023-06-01T11:06:31;101971.66;;;16.23;61.47
65131;BME280;51709;54.912;8.316;2023-06-01T11:17:26;101949.13;;;16.53;60.42
65131;BME280;51709;54.912;8.316;2023-06-01T11:22:49;101969.03;;;16.71;59.90
65131;BME280;51709;54.912;8.316;2023-06-01T11:28:12;101957.72;;;16.74;59.90
65131;BME280;51709;54.912;8.316;2023-06-01T11:33:33;101935.59;;;16.84;59.61
65131;BME280;51709;54.912;8.316;2023-06-01T11:38:55;101937.09;;;16.86;59.54
65131;BME280;51709;54.912;8.316;2023-06-01T11:44:16;101951.00;;;17.01;59.15
65131;BME280;51709;54.912;8.316;2023-06-01T11:49:55;101937.59;;;17.14;58.91
65131;BME280;51709;54.912;8.316;2023-06-01T11:55:15;101944.94;;;17.53;57.85
65131;BME280;51709;54.912;8.316;2023-06-01T12:00:38;101928.00;;;17.81;57.68
65131;BME280;51709;54.912;8.316;2023-06-01T12:05:59;101939.13;;;17.87;57.21
65131;BME280;51709;54.912;8.316;2023-06-01T12:11:21;101907.16;;;18.17;56.67
65131;BME280;51709;54.912;8.316;2023-06-01T12:16:54;101898.66;;;18.26;56.46
65131;BME280;51709;54.912;8.316;2023-06-01T12:22:15;101897.94;;;18.55;55.74
65131;BME280;51709;54.912;8.316;2023-06-01T12:27:37;101910.78;;;18.85;54.45
65131;BME280;51709;54.912;8.316;2023-06-01T12:32:59;101897.34;;;19.19;54.05
65131;BME280;51709;54.912;8.316;2023-06-01T12:38:20;101895.13;;;19.00;54.06
65131;BME280;51709;54.912;8.316;2023-06-01T12:43:48;101894.91;;;18.87;54.20
65131;BME280;51709;54.912;8.316;2023-06-01T12:49:13;101893.25;;;19.30;53.08
65131;BME280;51709;54.912;8.316;2023-06-01T12:54:34;101911.41;;;19.24;53.38
65131;BME280;51709;54.912;8.316;2023-06-01T12:59:55;101903.66;;;19.42;52.84
65131;BME280;51709;54.912;8.316;2023-06-01T13:05:16;101901.38;;;19.60;52.20
65131;BME280;51709;54.912;8.316;2023-06-01T13:10:40;101907.25;;;19.57;51.96
65131;BME280;51709;54.912;8.316;2023-06-01T13:16:01;101905.34;;;19.58;52.06
65131;BME280;51709;54.912;8.316;2023-06-01T13:21:23;101892.25;;;19.45;51.81
65131;BME280;51709;54.912;8.316;2023-06-01T13:26:44;101894.72;;;19.40;52.29
65131;BME280;51709;54.912;8.316;2023-06-01T13:32:05;101899.09;;;19.64;51.45
65131;BME280;51709;54.912;8.316;2023-06-01T13:37:25;101874.28;;;20.00;51.00
65131;BME280;51709;54.912;8.316;2023-06-01T13:42:46;101889.03;;;19.92;51.28
65131;BME280;51709;54.912;8.316;2023-06-01T13:48:07;101890.50;;;19.73;51.55
65131;BME280;51709;54.912;8.316;2023-06-01T13:53:28;101896.00;;;19.73;51.34
65131;BME280;51709;54.912;8.316;2023-06-01T13:58:49;101881.19;;;19.74;51.55
65131;BME280;51709;54.912;8.316;2023-06-01T14:04:09;101882.41;;;20.08;51.29
65131;BME280;51709;54.912;8.316;2023-06-01T14:09:30;101876.13;;;20.28;50.89
65131;BME280;51709;54.912;8.316;2023-06-01T14:14:51;101863.84;;;20.31;50.98
65131;BME280;51709;54.912;8.316;2023-06-01T14:20:11;101879.97;;;20.13;51.17
65131;BME280;51709;54.912;8.316;2023-06-01T14:25:33;101871.28;;;20.16;51.40
65131;BME280;51709;54.912;8.316;2023-06-01T14:30:54;101878.56;;;20.38;50.97
65131;BME280;51709;54.912;8.316;2023-06-01T14:36:15;101874.03;;;20.30;50.89
65131;BME280;51709;54.912;8.316;2023-06-01T14:41:35;101862.56;;;20.54;50.67
65131;BME280;51709;54.912;8.316;2023-06-01T14:46:56;101861.19;;;20.23;51.19
65131;BME280;51709;54.912;8.316;2023-06-01T14:52:19;101864.47;;;20.33;50.98
65131;BME280;51709;54.912;8.316;2023-06-01T14:57:40;101863.31;;;19.70;51.89
65131;BME280;51709;54.912;8.316;2023-06-01T15:03:01;101877.56;;;20.10;51.51
65131;BME280;51709;54.912;8.316;2023-06-01T15:08:22;101867.59;;;19.73;51.85
65131;BME280;51709;54.912;8.316;2023-06-01T15:13:43;101873.69;;;19.25;52.78
65131;BME280;51709;54.912;8.316;2023-06-01T15:19:04;101858.75;;;19.05;52.83
65131;BME280;51709;54.912;8.316;2023-06-01T15:24:25;101842.38;;;20.81;50.14
65131;BME280;51709;54.912;8.316;2023-06-01T15:29:45;101835.88;;;23.42;46.39
65131;BME280;51709;54.912;8.316;2023-06-01T15:35:06;101858.03;;;23.55;46.27
65131;BME280;51709;54.912;8.316;2023-06-01T15:40:29;101852.56;;;23.22;46.90
65131;BME280;51709;54.912;8.316;2023-06-01T15:45:50;101866.19;;;23.43;46.84
65131;BME280;51709;54.912;8.316;2023-06-01T15:51:10;101842.41;;;24.18;45.77
65131;BME280;51709;54.912;8.316;2023-06-01T15:56:31;101853.03;;;24.83;44.66
65131;BME280;51709;54.912;8.316;2023-06-01T16:01:52;101837.59;;;25.66;43.59
65131;BME280;51709;54.912;8.316;2023-06-01T16:07:12;101833.66;;;26.62;42.31
65131;BME280;51709;54.912;8.316;2023-06-01T16:12:33;101831.91;;;28.45;40.17
65131;BME280;51709;54.912;8.316;2023-06-01T16:17:54;101829.72;;;29.90;38.65
65131;BME280;51709;54.912;8.316;2023-06-01T16:23:14;101811.06;;;30.27;38.06
65131;BME280;51709;54.912;8.316;2023-06-01T16:28:35;101818.06;;;30.51;37.67
65131;BME280;51709;54.912;8.316;2023-06-01T16:33:56;101821.00;;;30.13;37.32
65131;BME280;51709;54.912;8.316;2023-06-01T16:39:16;101815.25;;;29.59;37.69
65131;BME280;51709;54.912;8.316;2023-06-01T16:44:37;101805.19;;;29.20;37.76
65131;BME280;51709;54.912;8.316;2023-06-01T16:49:58;101811.78;;;28.48;38.48
65131;BME280;51709;54.912;8.316;2023-06-01T16:55:18;101803.63;;;27.34;39.57
65131;BME280;51709;54.912;8.316;2023-06-01T17:00:38;101795.16;;;26.30;40.55
65131;BME280;51709;54.912;8.316;2023-06-01T17:05:59;101802.75;;;25.63;41.56
65131;BME280;51709;54.912;8.316;2023-06-01T17:11:20;101782.84;;;24.88;42.16
65131;BME280;51709;54.912;8.316;2023-06-01T17:16:40;101795.03;;;24.00;43.13
65131;BME280;51709;54.912;8.316;2023-06-01T17:22:01;101807.28;;;23.28;43.68
65131;BME280;51709;54.912;8.316;2023-06-01T17:27:22;101800.53;;;22.33;44.99
65131;BME280;51709;54.912;8.316;2023-06-01T17:32:43;101807.00;;;20.98;47.19
65131;BME280;51709;54.912;8.316;2023-06-01T17:38:04;101807.44;;;20.04;48.92
65131;BME280;51709;54.912;8.316;2023-06-01T17:43:25;101805.84;;;19.38;49.91
65131;BME280;51709;54.912;8.316;2023-06-01T17:48:45;101802.09;;;18.73;50.69
65131;BME280;51709;54.912;8.316;2023-06-01T17:54:07;101796.09;;;18.10;52.03
65131;BME280;51709;54.912;8.316;2023-06-01T17:59:28;101801.16;;;17.53;52.89
65131;BME280;51709;54.912;8.316;2023-06-01T18:04:48;101795.69;;;16.98;53.92
65131;BME280;51709;54.912;8.316;2023-06-01T18:10:11;101795.78;;;16.58;54.66
65131;BME280;51709;54.912;8.316;2023-06-01T18:15:31;101802.81;;;16.36;55.26
65131;BME280;51709;54.912;8.316;2023-06-01T18:20:52;101811.38;;;16.17;55.95
65131;BME280;51709;54.912;8.316;2023-06-01T18:26:16;101798.19;;;15.97;56.63
65131;BME280;51709;54.912;8.316;2023-06-01T18:31:37;101799.50;;;15.60;57.37
65131;BME280;51709;54.912;8.316;2023-06-01T18:36:58;101794.59;;;15.30;57.92
65131;BME280;51709;54.912;8.316;2023-06-01T18:42:19;101810.56;;;15.09;58.31
65131;BME280;51709;54.912;8.316;2023-06-01T18:47:40;101811.19;;;14.95;58.60
65131;BME280;51709;54.912;8.316;2023-06-01T18:53:01;101814.16;;;14.76;59.11
65131;BME280;51709;54.912;8.316;2023-06-01T18:58:22;101815.06;;;14.59;59.43
65131;BME280;51709;54.912;8.316;2023-06-01T19:03:42;101809.81;;;14.40;60.04
65131;BME280;51709;54.912;8.316;2023-06-01T19:09:04;101805.34;;;14.21;60.49
65131;BME280;51709;54.912;8.316;2023-06-01T19:14:25;101805.75;;;14.09;60.99
65131;BME280;51709;54.912;8.316;2023-06-01T19:19:46;101803.94;;;14.00;61.04
65131;BME280;51709;54.912;8.316;2023-06-01T19:25:07;101797.72;;;13.90;61.35
65131;BME280;51709;54.912;8.316;2023-06-01T19:30:30;101809.44;;;13.82;61.74
65131;BME280;51709;54.912;8.316;2023-06-01T19:35:52;101802.72;;;13.77;61.65
65131;BME280;51709;54.912;8.316;2023-06-01T19:41:15;101806.09;;;13.71;62.05
65131;BME280;51709;54.912;8.316;2023-06-01T19:46:36;101808.41;;;13.65;62.23
65131;BME280;51709;54.912;8.316;2023-06-01T19:51:56;101817.63;;;13.64;62.01
65131;BME280;51709;54.912;8.316;2023-06-01T19:57:17;101811.44;;;13.62;62.13
65131;BME280;51709;54.912;8.316;2023-06-01T20:02:51;101806.47;;;13.58;62.50
65131;BME280;51709;54.912;8.316;2023-06-01T20:08:13;101806.91;;;13.53;62.47
65131;BME280;51709;54.912;8.316;2023-06-01T20:13:38;101820.56;;;13.53;62.48
65131;BME280;51709;54.912;8.316;2023-06-01T20:18:58;101820.00;;;13.50;62.83
65131;BME280;51709;54.912;8.316;2023-06-01T20:24:23;101821.59;;;13.52;62.90
65131;BME280;51709;54.912;8.316;2023-06-01T20:29:45;101821.97;;;13.57;62.76
65131;BME280;51709;54.912;8.316;2023-06-01T20:35:08;101808.72;;;13.62;62.90
65131;BME280;51709;54.912;8.316;2023-06-01T20:46:10;101821.06;;;13.67;63.13
65131;BME280;51709;54.912;8.316;2023-06-01T20:56:54;101827.13;;;13.60;63.00
65131;BME280;51709;54.912;8.316;2023-06-01T21:02:21;101836.19;;;13.34;63.79
65131;BME280;51709;54.912;8.316;2023-06-01T21:07:41;101846.00;;;13.27;64.06
65131;BME280;51709;54.912;8.316;2023-06-01T21:13:02;101842.09;;;13.29;64.02
65131;BME280;51709;54.912;8.316;2023-06-01T21:18:22;101844.84;;;13.29;64.06
65131;BME280;51709;54.912;8.316;2023-06-01T21:23:43;101850.00;;;13.32;64.16
65131;BME280;51709;54.912;8.316;2023-06-01T21:29:04;101856.03;;;13.36;64.37
65131;BME280;51709;54.912;8.316;2023-06-01T21:34:25;101853.69;;;13.41;64.25
65131;BME280;51709;54.912;8.316;2023-06-01T21:39:46;101852.38;;;13.45;64.47
65131;BME280;51709;54.912;8.316;2023-06-01T21:45:08;101844.03;;;13.46;64.59
65131;BME280;51709;54.912;8.316;2023-06-01T21:50:28;101861.13;;;13.48;64.79
65131;BME280;51709;54.912;8.316;2023-06-01T21:55:50;101860.81;;;13.51;64.76
65131;BME280;51709;54.912;8.316;2023-06-01T22:01:12;101877.19;;;13.51;65.01
65131;BME280;51709;54.912;8.316;2023-06-01T22:06:32;101875.19;;;13.53;65.13
65131;BME280;51709;54.912;8.316;2023-06-01T22:11:53;101885.22;;;13.53;65.38
65131;BME280;51709;54.912;8.316;2023-06-01T22:17:13;101884.50;;;13.51;65.50
65131;BME280;51709;54.912;8.316;2023-06-01T22:22:34;101884.38;;;13.52;65.72
65131;BME280;51709;54.912;8.316;2023-06-01T22:27:56;101882.97;;;13.48;65.82
65131;BME280;51709;54.912;8.316;2023-06-01T22:33:17;101892.16;;;13.47;66.08
65131;BME280;51709;54.912;8.316;2023-06-01T22:38:37;101901.91;;;13.50;66.05
65131;BME280;51709;54.912;8.316;2023-06-01T22:44:03;101900.47;;;13.55;66.03
65131;BME280;51709;54.912;8.316;2023-06-01T22:49:24;101901.16;;;13.57;66.09
65131;BME280;51709;54.912;8.316;2023-06-01T22:54:45;101909.91;;;13.61;66.19
65131;BME280;51709;54.912;8.316;2023-06-01T23:00:08;101908.19;;;13.60;66.38
65131;BME280;51709;54.912;8.316;2023-06-01T23:05:30;101917.41;;;13.59;66.22
65131;BME280;51709;54.912;8.316;2023-06-01T23:11:00;101924.72;;;13.58;66.58
65131;BME280;51709;54.912;8.316;2023-06-01T23:16:21;101922.31;;;13.55;66.44
65131;BME280;51709;54.912;8.316;2023-06-01T23:21:45;101925.19;;;13.54;66.54
65131;BME280;51709;54.912;8.316;2023-06-01T23:27:09;101940.16;;;13.50;66.54
65131;BME280;51709;54.912;8.316;2023-06-01T23:32:29;101940.31;;;13.48;66.58
65131;BME280;51709;54.912;8.316;2023-06-01T23:37:52;101942.47;;;13.45;66.70
65131;BME280;51709;54.912;8.316;2023-06-01T23:43:12;101938.16;;;13.42;66.66
65131;BME280;51709;54.912;8.316;2023-06-01T23:48:33;101945.09;;;13.37;66.94
65131;BME280;51709;54.912;8.316;2023-06-01T23:53:54;101949.16;;;13.33;67.08
65131;BME280;51709;54.912;8.316;2023-06-01T23:59:14;101950.59;;;13.27;66.99
